createdAt,value
2023-04-07T00:03:07.983Z,4.55
2023-04-07T00:18:10.113Z,4.31
2023-04-07T00:33:12.160Z,4.40
2023-04-07T00:48:14.221Z,4.36
2023-04-07T01:03:34.155Z,4.18
2023-04-07T01:18:38.586Z,4.28
2023-04-07T01:33:45.277Z,4.16
2023-04-07T01:48:48.926Z,4.43
2023-04-07T02:04:08.033Z,4.95
2023-04-07T02:19:10.362Z,4.50
2023-04-07T02:34:12.307Z,4.74
2023-04-07T02:49:14.148Z,4.94
2023-04-07T03:04:16.831Z,4.95
2023-04-07T03:19:19.102Z,5.03
2023-04-07T03:34:21.057Z,4.84
2023-04-07T03:49:23.187Z,5.46
2023-04-07T04:04:25.152Z,5.19
2023-04-07T04:19:27.098Z,5.21
2023-04-07T04:34:29.000Z,5.06
2023-04-07T04:49:31.705Z,5.36
2023-04-07T05:04:33.734Z,5.88
2023-04-07T05:19:36.027Z,5.96
2023-04-07T05:34:46.932Z,6.27
2023-04-07T05:49:48.886Z,6.95
2023-04-07T06:04:50.826Z,7.07
2023-04-07T06:19:52.959Z,7.61
2023-04-07T06:34:54.949Z,8.68
2023-04-07T06:49:57.053Z,10.52
2023-04-07T07:04:59.003Z,10.41
2023-04-07T07:20:01.076Z,12.62
2023-04-07T07:35:03.073Z,11.27
2023-04-07T07:50:05.777Z,10.28
2023-04-07T08:05:08.518Z,10.46
2023-04-07T08:20:12.041Z,11.36
2023-04-07T08:35:14.169Z,10.34
2023-04-07T08:50:18.524Z,11.06
2023-04-07T09:05:23.761Z,11.42
2023-04-07T09:20:26.176Z,11.56
2023-04-07T09:35:29.025Z,11.20
2023-04-07T09:50:42.232Z,11.06
2023-04-07T10:05:48.804Z,11.59
2023-04-07T10:20:52.585Z,11.03
2023-04-07T10:36:07.929Z,10.83
2023-04-07T10:51:15.553Z,10.16
2023-04-07T11:06:17.718Z,9.89
2023-04-07T11:21:20.029Z,9.99
2023-04-07T11:36:42.086Z,9.39
2023-04-07T11:51:45.434Z,9.76
2023-04-07T12:06:49.329Z,9.28
2023-04-07T12:21:51.668Z,10.22
2023-04-07T12:36:53.885Z,10.17
2023-04-07T12:51:55.980Z,10.33
2023-04-07T13:06:57.928Z,10.32
2023-04-07T13:22:00.441Z,9.94
2023-04-07T13:37:04.010Z,9.86
2023-04-07T13:52:06.018Z,9.83
2023-04-07T14:07:08.027Z,9.01
2023-04-07T14:22:10.049Z,8.70
2023-04-07T14:37:12.341Z,8.68
2023-04-07T14:52:14.343Z,8.31
2023-04-07T15:07:16.295Z,8.06
2023-04-07T15:22:18.275Z,8.23
2023-04-07T15:37:20.151Z,7.93
2023-04-07T15:52:22.072Z,8.13
2023-04-07T16:07:24.196Z,8.02
2023-04-07T16:22:26.502Z,7.69
2023-04-07T16:37:28.567Z,8.15
2023-04-07T16:52:31.441Z,7.55
2023-04-07T17:07:33.391Z,7.50
2023-04-07T17:22:35.436Z,8.11
2023-04-07T17:37:38.490Z,8.49
2023-04-07T17:52:40.790Z,8.71
2023-04-07T18:07:42.705Z,8.61
2023-04-07T18:22:44.631Z,8.71
2023-04-07T18:37:46.653Z,8.86
2023-04-07T18:52:48.623Z,8.97
2023-04-07T19:07:50.764Z,8.46
2023-04-07T19:22:52.616Z,8.14
2023-04-07T19:37:54.695Z,8.03
2023-04-07T19:52:57.157Z,7.61
2023-04-07T20:07:59.526Z,7.32
2023-04-07T20:23:01.359Z,7.38
2023-04-07T20:38:03.270Z,7.34
2023-04-07T20:53:05.154Z,7.55
2023-04-07T21:08:07.079Z,8.14
2023-04-07T21:23:09.120Z,8.23
2023-04-07T21:38:11.283Z,8.33
2023-04-07T21:53:13.205Z,8.58
2023-04-07T22:08:15.103Z,8.44
2023-04-07T22:23:16.947Z,7.80
2023-04-07T22:38:18.934Z,7.07
2023-04-07T22:53:21.170Z,7.85
2023-04-07T23:08:23.287Z,8.04
2023-04-07T23:23:25.161Z,8.19
2023-04-07T23:38:27.107Z,8.37
2023-04-07T23:53:29.070Z,8.15
